Time;durP1;ratioP1;P1;durP2;ratioP2;P2;SDS_P1;SDS_P2;PMS_P1;PMS_P2;Temp;Humidity;BMP_temperature;BMP_pressure;BME280_temperature;BME280_humidity;BME280_pressure;Samples;Min_cycle;Max_cycle;Signal;HPM_P1;HPM_P2
2022/04/04 00:02:14;;;;;;;0.00;0.00;;;;;;;11.45;72.64;101162.84;7354104;19;20141;-57
2022/04/04 00:04:40;;;;;;;0.00;0.00;;;;;;;11.44;72.87;101158.50;7360312;19;20066;-57
2022/04/04 00:07:05;;;;;;;0.00;0.00;;;;;;;11.38;72.83;101137.72;7351777;19;20835;-58
2022/04/04 00:09:31;;;;;;;0.00;0.00;;;;;;;11.37;72.63;101125.53;7354280;19;20021;-58
2022/04/04 00:11:56;;;;;;;0.00;0.00;;;;;;;11.50;71.73;101140.06;7355242;19;20093;-57
2022/04/04 00:14:22;;;;;;;0.00;0.00;;;;;;;11.58;71.57;101140.81;7356153;19;20493;-57
2022/04/04 00:16:47;;;;;;;0.00;0.00;;;;;;;11.57;71.77;101136.47;7356745;19;20121;-57
2022/04/04 00:19:14;;;;;;;0.00;0.00;;;;;;;11.60;72.50;101140.75;7355088;19;20035;-57
2022/04/04 00:21:40;;;;;;;0.00;0.00;;;;;;;11.62;72.46;101137.25;7355520;19;20031;-58
2022/04/04 00:24:06;;;;;;;0.00;0.00;;;;;;;11.54;72.27;101112.13;7354394;19;20377;-58
2022/04/04 00:26:31;;;;;;;0.00;0.00;;;;;;;11.58;71.54;101119.00;7358677;19;21292;-57
2022/04/04 00:28:57;;;;;;;0.00;0.00;;;;;;;11.65;72.25;101115.38;7358191;19;20010;-57
2022/04/04 00:31:22;;;;;;;0.00;0.00;;;;;;;11.67;72.59;101118.84;7356319;19;20010;-58
2022/04/04 00:33:48;;;;;;;0.00;0.00;;;;;;;11.69;72.54;101110.03;7358125;19;20074;-57
2022/04/04 00:36:13;;;;;;;0.00;0.00;;;;;;;11.74;72.46;101104.72;7358149;19;20013;-58
2022/04/04 00:38:39;;;;;;;0.10;0.10;;;;;;;11.76;72.02;101096.84;7354309;19;20022;-58
2022/04/04 00:41:15;;;;;;;0.00;0.00;;;;;;;11.80;72.42;101098.50;7359968;19;20011;-58
2022/04/04 00:43:41;;;;;;;0.00;0.00;;;;;;;11.81;72.45;101100.22;7357163;19;20772;-57
2022/04/04 00:46:06;;;;;;;0.00;0.00;;;;;;;11.83;72.41;101088.88;7355258;19;20017;-57
2022/04/04 00:48:32;;;;;;;0.00;0.00;;;;;;;11.75;72.44;101074.19;7357013;19;20018;-57
2022/04/04 00:50:58;;;;;;;0.00;0.00;;;;;;;11.89;72.23;101083.50;7356253;19;20007;-56
2022/04/04 00:53:26;;;;;;;0.00;0.00;;;;;;;11.93;72.81;101081.69;7356343;19;20025;-57
2022/04/04 00:55:51;;;;;;;0.00;0.00;;;;;;;11.92;73.05;101075.59;7355369;19;20014;-57
2022/04/04 00:58:19;;;;;;;0.00;0.00;;;;;;;12.02;71.84;101083.25;7348432;19;20021;-56
2022/04/04 01:00:46;;;;;;;;;;;;;;;12.08;68.97;101088.31;7356938;19;20014;-57
2022/04/04 01:03:11;;;;;;;0.00;0.00;;;;;;;12.06;71.48;101079.63;7352713;19;19926;-57
2022/04/04 01:05:36;;;;;;;0.00;0.00;;;;;;;12.05;72.07;101077.91;7352308;19;20014;-57
2022/04/04 01:08:02;;;;;;;0.00;0.00;;;;;;;12.13;72.14;101084.72;7350630;19;20014;-57
2022/04/04 01:10:28;;;;;;;0.00;0.00;;;;;;;12.14;72.07;101073.34;7356913;19;20024;-57
2022/04/04 01:12:55;;;;;;;0.00;0.00;;;;;;;12.19;72.47;101083.69;7353412;19;20013;-57
2022/04/04 01:15:23;;;;;;;0.00;0.00;;;;;;;12.22;71.69;101072.31;7355601;19;20248;-57
2022/04/04 01:17:50;;;;;;;0.00;0.00;;;;;;;12.18;71.45;101061.03;7354617;19;20106;-57
2022/04/04 01:20:15;;;;;;;0.00;0.00;;;;;;;12.22;72.34;101064.47;7358844;19;20043;-57
2022/04/04 01:22:46;;;;;;;0.00;0.00;;;;;;;12.26;70.51;101042.50;7351508;19;20011;-57
2022/04/04 01:25:12;;;;;;;0.00;0.00;;;;;;;12.20;71.88;101041.75;7358319;19;20013;-57
2022/04/04 01:27:39;;;;;;;0.00;0.00;;;;;;;12.30;71.16;101058.13;7354034;19;20549;-57
2022/04/04 01:30:07;;;;;;;0.00;0.00;;;;;;;12.32;71.67;101050.25;7353815;19;20031;-57
2022/04/04 01:32:34;;;;;;;0.00;0.00;;;;;;;12.34;72.12;101053.69;7355353;19;20473;-55
2022/04/04 01:35:00;;;;;;;0.00;0.00;;;;;;;12.36;71.39;101041.38;7355963;19;20003;-57
2022/04/04 01:37:25;;;;;;;0.00;0.00;;;;;;;12.37;71.51;101037.91;7351493;19;20018;-57
2022/04/04 01:39:51;;;;;;;0.00;0.00;;;;;;;12.39;71.84;101041.31;7355600;19;20018;-61
2022/04/04 01:42:17;;;;;;;0.00;0.00;;;;;;;12.37;71.32;101036.13;7356597;19;20034;-57
2022/04/04 01:44:42;;;;;;;0.00;0.00;;;;;;;12.44;72.10;101034.22;7347222;19;20399;-57
2022/04/04 01:47:08;;;;;;;0.00;0.00;;;;;;;12.41;71.24;101024.66;7350887;19;20018;-57
2022/04/04 01:49:33;;;;;;;0.00;0.00;;;;;;;12.46;71.60;101030.66;7358198;19;20997;-57
2022/04/04 01:51:59;;;;;;;0.00;0.00;;;;;;;12.46;71.50;101021.94;7347593;19;20087;-57
2022/04/04 01:54:24;;;;;;;0.00;0.00;;;;;;;12.24;71.22;100968.38;7356457;19;20784;-57
2022/04/04 01:56:49;;;;;;;0.00;0.00;;;;;;;12.51;70.51;101020.06;7348408;19;20022;-57
2022/04/04 01:59:15;;;;;;;0.00;0.00;;;;;;;12.50;71.24;101004.38;7338152;19;20036;-57
2022/04/04 02:01:41;;;;;;;0.00;0.00;;;;;;;12.51;71.58;101009.56;7354873;19;20010;-56
2022/04/04 02:04:10;;;;;;;0.00;0.00;;;;;;;12.46;72.09;100988.72;7351217;19;20584;-56
2022/04/04 02:06:35;;;;;;;0.00;0.00;;;;;;;12.55;71.56;101011.22;7355195;19;20457;-57
2022/04/04 02:09:01;;;;;;;0.00;0.00;;;;;;;12.54;71.33;100998.19;7355603;19;20014;-57
2022/04/04 02:11:26;;;;;;;0.00;0.00;;;;;;;12.56;70.94;101001.59;7346894;19;20017;-57
2022/04/04 02:13:51;;;;;;;0.00;0.00;;;;;;;12.58;71.14;100995.44;7355483;19;20013;-56
2022/04/04 02:16:17;;;;;;;0.00;0.00;;;;;;;12.48;71.19;100970.38;7354728;19;20002;-56
2022/04/04 02:18:42;;;;;;;0.00;0.00;;;;;;;12.60;71.17;101004.09;7356274;19;20017;-57
2022/04/04 02:21:08;;;;;;;0.00;0.00;;;;;;;12.60;71.83;100998.88;7348416;19;20010;-57
2022/04/04 02:23:34;;;;;;;0.00;0.00;;;;;;;12.57;71.33;100988.47;7358353;19;20888;-57
2022/04/04 02:25:59;;;;;;;0.00;0.00;;;;;;;12.62;71.40;100991.84;7356940;19;20013;-55
2022/04/04 02:28:28;;;;;;;0.00;0.00;;;;;;;12.48;71.40;100962.53;7339237;19;20014;-55
2022/04/04 02:30:54;;;;;;;0.00;0.00;;;;;;;12.60;71.49;100988.38;7357008;19;20015;-56
2022/04/04 02:33:21;;;;;;;0.00;0.00;;;;;;;12.63;71.67;100992.69;7354361;19;20623;-56
2022/04/04 02:35:48;;;;;;;0.00;0.00;;;;;;;12.63;71.22;100988.31;7352214;19;20025;-56
2022/04/04 02:38:14;;;;;;;0.00;0.00;;;;;;;12.65;71.05;100985.66;7341891;19;20593;-57
2022/04/04 02:40:40;;;;;;;0.00;0.00;;;;;;;12.66;71.58;100990.84;7358119;19;20021;-57
2022/04/04 02:43:07;;;;;;;0.00;0.00;;;;;;;12.66;71.12;100988.22;7337700;19;20014;-56
2022/04/04 02:45:33;;;;;;;0.00;0.00;;;;;;;12.66;71.39;100982.97;7359612;19;20014;-57
2022/04/04 02:47:58;;;;;;;0.10;0.10;;;;;;;12.65;71.40;100981.25;7360285;19;20352;-56
2022/04/04 02:50:25;;;;;;;0.00;0.00;;;;;;;12.67;70.98;100974.25;7318669;19;20043;-57
2022/04/04 02:52:50;;;;;;;0.00;0.00;;;;;;;12.67;71.60;100971.63;7363822;19;20006;-57
2022/04/04 02:58:00;;;;;;;0.00;0.00;;;;;;;12.70;71.34;100971.50;7364126;19;20744;-57
2022/04/04 03:00:25;;;;;;;0.00;0.00;;;;;;;12.68;71.11;100964.63;7333509;19;20015;-56
2022/04/04 03:02:52;;;;;;;0.00;0.00;;;;;;;12.69;70.93;100977.66;7364570;19;20485;-57
2022/04/04 03:05:18;;;;;;;0.00;0.00;;;;;;;12.60;69.83;100938.59;7355856;19;20022;-55
2022/04/04 03:07:44;;;;;;;0.00;0.00;;;;;;;12.68;71.08;100948.91;7356249;19;20031;-57
2022/04/04 03:10:10;;;;;;;0.00;0.00;;;;;;;12.55;71.27;100929.16;7338544;19;20779;-56
2022/04/04 03:12:41;;;;;;;0.00;0.00;;;;;;;12.65;70.81;100941.97;7362818;19;20019;-57
2022/04/04 03:15:08;;;;;;;0.00;0.00;;;;;;;12.67;70.83;100948.03;7362623;19;20810;-57
2022/04/04 03:17:33;;;;;;;0.00;0.00;;;;;;;12.68;71.37;100938.41;7360626;19;20866;-56
2022/04/04 03:19:59;;;;;;;0.00;0.00;;;;;;;12.66;71.70;100935.81;7359127;19;20082;-57
2022/04/04 03:22:25;;;;;;;0.00;0.00;;;;;;;12.56;71.12;100910.78;7350581;19;20043;-57
2022/04/04 03:24:50;;;;;;;0.00;0.00;;;;;;;12.66;70.97;100943.66;7359843;19;20074;-57
2022/04/04 03:27:16;;;;;;;0.00;0.00;;;;;;;12.69;70.96;100925.25;7360634;19;20017;-56
2022/04/04 03:29:41;;;;;;;0.00;0.00;;;;;;;12.69;71.05;100920.03;7358610;19;20010;-56
2022/04/04 03:32:07;;;;;;;0.00;0.00;;;;;;;12.67;71.30;100927.06;7364198;19;20029;-57
2022/04/04 03:34:33;;;;;;;0.00;0.00;;;;;;;12.69;70.91;100929.66;7365840;19;20014;-57
2022/04/04 03:36:58;;;;;;;0.10;0.10;;;;;;;12.69;70.79;100925.25;7354825;19;20027;-57
2022/04/04 03:39:24;;;;;;;0.00;0.00;;;;;;;12.70;70.19;100919.13;7356904;19;20014;-57
2022/04/04 03:41:49;;;;;;;0.00;0.00;;;;;;;12.59;70.93;100897.59;7362011;19;20031;-55
2022/04/04 03:44:15;;;;;;;0.00;0.00;;;;;;;12.64;71.19;100895.72;7357389;19;20014;-57
2022/04/04 03:46:40;;;;;;;0.00;0.00;;;;;;;12.71;70.15;100909.50;7362677;19;20019;-56
2022/04/04 03:49:06;;;;;;;0.00;0.00;;;;;;;12.71;70.61;100899.00;7357951;19;20011;-56
2022/04/04 03:51:32;;;;;;;0.00;0.00;;;;;;;12.68;70.68;100886.88;7360003;19;20031;-56
2022/04/04 03:53:57;;;;;;;0.00;0.00;;;;;;;12.70;71.02;100889.44;7351222;19;20358;-55
2022/04/04 03:56:23;;;;;;;0.00;0.00;;;;;;;12.59;70.61;100860.91;7355111;19;20669;-57
2022/04/04 03:58:49;;;;;;;0.00;0.00;;;;;;;12.62;70.31;100859.97;7359407;19;20018;-57
2022/04/04 04:01:15;;;;;;;0.00;0.00;;;;;;;12.68;70.03;100865.06;7360468;19;20038;-57
2022/04/04 04:03:40;;;;;;;0.00;0.00;;;;;;;12.65;70.30;100859.88;7355850;19;20833;-57
2022/04/04 04:06:11;;;;;;;0.10;0.10;;;;;;;12.66;70.44;100862.44;7361054;19;20011;-57
2022/04/04 04:08:40;;;;;;;0.00;0.00;;;;;;;12.66;70.26;100866.84;7358169;19;20014;-57
2022/04/04 04:11:06;;;;;;;0.00;0.00;;;;;;;12.64;70.89;100859.03;7360383;19;20078;-56
2022/04/04 04:13:31;;;;;;;0.00;0.00;;;;;;;12.63;70.27;100864.31;7364345;19;20098;-55
2022/04/04 04:15:58;;;;;;;0.00;0.00;;;;;;;12.62;71.09;100868.72;7365432;19;20014;-57
2022/04/04 04:18:24;;;;;;;0.00;0.00;;;;;;;12.61;71.03;100864.34;7360410;19;20022;-57
2022/04/04 04:20:50;;;;;;;0.00;0.00;;;;;;;12.61;69.97;100861.72;7358438;19;20018;-56
2022/04/04 04:23:16;;;;;;;0.00;0.00;;;;;;;12.61;71.36;100863.50;7357476;19;20478;-57
2022/04/04 04:25:42;;;;;;;0.00;0.00;;;;;;;12.61;70.60;100861.72;7354051;19;20011;-57
2022/04/04 04:28:09;;;;;;;0.00;0.00;;;;;;;12.54;70.71;100852.34;7357887;19;20117;-55
2022/04/04 04:30:35;;;;;;;0.00;0.00;;;;;;;12.62;70.21;100855.59;7358697;19;20010;-57
2022/04/04 04:33:02;;;;;;;0.00;0.00;;;;;;;12.60;70.83;100852.16;7360362;19;20029;-55
2022/04/04 04:35:28;;;;;;;0.00;0.00;;;;;;;12.62;70.90;100850.38;7361675;19;20362;-56
2022/04/04 04:37:54;;;;;;;0.00;0.00;;;;;;;12.62;71.32;100850.38;7361453;19;20021;-57
2022/04/04 04:40:20;;;;;;;0.00;0.00;;;;;;;12.61;71.07;100848.63;7361335;19;20021;-55
2022/04/04 04:42:47;;;;;;;0.00;0.00;;;;;;;12.61;71.25;100832.06;7355214;19;20014;-57
2022/04/04 04:45:13;;;;;;;0.00;0.00;;;;;;;12.62;69.82;100829.41;7356751;19;20066;-57
2022/04/04 04:47:39;;;;;;;0.00;0.00;;;;;;;12.57;71.00;100828.69;7361762;19;20036;-57
2022/04/04 04:50:06;;;;;;;0.05;0.05;;;;;;;12.61;70.80;100848.63;7362867;19;20011;-57
2022/04/04 04:52:32;;;;;;;0.00;0.00;;;;;;;12.61;70.92;100838.16;7359802;19;20112;-56
2022/04/04 04:55:00;;;;;;;0.03;0.03;;;;;;;12.61;71.16;100830.28;7348556;19;20011;-57
2022/04/04 04:57:25;;;;;;;0.00;0.00;;;;;;;12.60;71.22;100820.72;7358697;19;20011;-57
2022/04/04 04:59:51;;;;;;;0.00;0.00;;;;;;;12.58;71.32;100827.78;7359127;19;20010;-57
2022/04/04 05:02:16;;;;;;;0.00;0.00;;;;;;;12.56;71.15;100824.31;7363866;19;20018;-56
2022/04/04 05:04:41;;;;;;;0.00;0.00;;;;;;;12.62;70.75;100833.75;7354403;19;20006;-56
2022/04/04 05:07:08;;;;;;;0.00;0.00;;;;;;;12.61;70.91;100830.28;7361979;19;20501;-56
2022/04/04 05:09:34;;;;;;;0.10;0.10;;;;;;;12.62;70.51;100825.91;7364399;19;20383;-57
2022/04/04 05:12:00;;;;;;;0.05;0.05;;;;;;;12.60;70.68;100815.47;7347747;19;20526;-53
2022/04/04 05:14:25;;;;;;;0.00;0.00;;;;;;;12.61;70.93;100805.84;7354365;19;20105;-56
2022/04/04 05:16:53;;;;;;;0.00;0.00;;;;;;;12.52;71.11;100799.16;7358500;19;20027;-57
2022/04/04 05:19:22;;;;;;;0.00;0.00;;;;;;;12.52;71.05;100801.75;7356185;19;20017;-57
2022/04/04 05:21:48;;;;;;;0.00;0.00;;;;;;;12.58;71.05;100806.81;7357333;19;20006;-56
2022/04/04 05:24:14;;;;;;;0.00;0.00;;;;;;;12.57;71.49;100820.81;7361813;19;20028;-57
2022/04/04 05:26:39;;;;;;;0.00;0.00;;;;;;;12.51;71.44;100805.25;7354922;19;20014;-57
2022/04/04 05:29:05;;;;;;;0.00;0.00;;;;;;;12.56;71.34;100821.69;7365329;19;20021;-57
2022/04/04 05:31:31;;;;;;;0.00;0.00;;;;;;;12.56;71.42;100811.22;7349072;19;20032;-56
2022/04/04 05:33:58;;;;;;;0.00;0.00;;;;;;;12.55;71.32;100808.66;7351190;19;20010;-57
2022/04/04 05:36:25;;;;;;;0.00;0.00;;;;;;;12.58;71.05;100805.97;7360931;19;20010;-57
2022/04/04 05:38:50;;;;;;;0.00;0.00;;;;;;;12.56;71.34;100813.00;7358756;19;20042;-55
2022/04/04 05:41:19;;;;;;;0.00;0.00;;;;;;;12.46;70.63;100783.59;7355675;19;20014;-57
2022/04/04 05:43:46;;;;;;;0.00;0.00;;;;;;;12.56;71.53;100792.03;7363738;19;20014;-57
2022/04/04 05:46:16;;;;;;;0.00;0.00;;;;;;;12.53;71.67;100798.25;7346216;19;20010;-57
2022/04/04 05:48:42;;;;;;;0.10;0.10;;;;;;;12.55;71.32;100812.13;7361760;19;20022;-57
2022/04/04 05:51:08;;;;;;;0.00;0.00;;;;;;;12.43;71.64;100788.94;7357410;19;22911;-56
2022/04/04 05:53:34;;;;;;;0.00;0.00;;;;;;;12.56;70.66;100808.59;7355482;19;20011;-56
2022/04/04 05:55:59;;;;;;;0.00;0.00;;;;;;;12.53;71.39;100792.13;7356560;19;20054;-57
2022/04/04 05:58:25;;;;;;;0.00;0.00;;;;;;;12.51;71.58;100789.53;7356176;19;20604;-57
2022/04/04 06:00:51;;;;;;;0.00;0.00;;;;;;;12.57;72.06;100792.00;7361427;19;20039;-57
2022/04/04 06:03:18;;;;;;;0.03;0.03;;;;;;;12.52;72.11;100796.53;7347360;19;20011;-56
2022/04/04 06:05:44;;;;;;;0.00;0.00;;;;;;;12.56;71.89;100808.59;7360307;19;20035;-57
2022/04/04 06:08:09;;;;;;;0.00;0.00;;;;;;;12.56;71.50;100803.38;7356778;19;20030;-57
2022/04/04 06:10:35;;;;;;;0.00;0.00;;;;;;;12.58;71.08;100809.44;7358855;19;20097;-56
2022/04/04 06:13:00;;;;;;;0.00;0.00;;;;;;;12.43;71.45;100770.59;7353040;19;20011;-57
2022/04/04 06:15:25;;;;;;;0.00;0.00;;;;;;;12.52;71.58;100780.81;7361003;19;20532;-57
2022/04/04 06:17:52;;;;;;;0.00;0.00;;;;;;;12.62;70.67;100789.22;7356902;19;20028;-57
2022/04/04 06:20:17;;;;;;;0.00;0.00;;;;;;;12.63;71.45;100798.81;7366891;19;20029;-57
2022/04/04 06:22:43;;;;;;;0.00;0.00;;;;;;;12.62;71.80;100787.50;7365655;19;20402;-57
2022/04/04 06:25:12;;;;;;;0.00;0.00;;;;;;;12.64;71.62;100798.78;7364136;19;20027;-57
2022/04/04 06:27:37;;;;;;;0.00;0.00;;;;;;;12.62;72.14;100783.97;7362878;19;20835;-57
2022/04/04 06:30:04;;;;;;;0.00;0.00;;;;;;;12.65;71.64;100784.75;7360556;19;20006;-57
2022/04/04 06:32:29;;;;;;;0.00;0.00;;;;;;;12.65;71.64;100782.13;7362158;19;20788;-57
2022/04/04 06:34:55;;;;;;;0.00;0.00;;;;;;;12.66;71.41;100789.09;7358926;19;20014;-57
2022/04/04 06:37:20;;;;;;;0.00;0.00;;;;;;;12.69;71.35;100791.63;7362741;19;20014;-57
2022/04/04 06:39:46;;;;;;;0.00;0.00;;;;;;;12.70;71.98;100792.50;7361903;19;20038;-56
2022/04/04 06:42:11;;;;;;;0.00;0.00;;;;;;;12.72;71.67;100799.41;7345030;19;20482;-56
2022/04/04 06:44:37;;;;;;;0.00;0.00;;;;;;;12.73;71.62;100790.63;7354715;19;20007;-57
2022/04/04 06:47:04;;;;;;;0.00;0.00;;;;;;;12.76;71.55;100788.81;7364226;19;20006;-57
2022/04/04 06:49:30;;;;;;;0.00;0.00;;;;;;;12.78;71.55;100787.03;7358096;19;23389;-56
2022/04/04 06:51:56;;;;;;;0.00;0.00;;;;;;;12.75;71.78;100774.00;7352333;19;20038;-57
2022/04/04 06:54:23;;;;;;;0.00;0.00;;;;;;;12.80;71.93;100782.59;7364826;19;20023;-55
2022/04/04 06:56:52;;;;;;;0.00;0.00;;;;;;;12.82;71.72;100788.63;7347834;19;20719;-57
2022/04/04 06:59:18;;;;;;;0.00;0.00;;;;;;;12.80;72.19;100779.97;7364012;19;20006;-57
2022/04/04 07:01:43;;;;;;;0.00;0.00;;;;;;;12.87;71.86;100778.84;7356231;19;20847;-57
2022/04/04 07:04:11;;;;;;;0.00;0.00;;;;;;;12.90;71.32;100765.66;7363306;19;20002;-57
2022/04/04 07:06:37;;;;;;;0.00;0.00;;;;;;;12.80;71.26;100766.88;7363029;19;20006;-57
2022/04/04 07:09:03;;;;;;;0.00;0.00;;;;;;;12.92;71.20;100779.56;7355813;19;20003;-57
2022/04/04 07:11:29;;;;;;;0.00;0.00;;;;;;;12.89;71.99;100779.69;7361003;19;20756;-57
2022/04/04 07:13:56;;;;;;;0.00;0.00;;;;;;;12.94;71.26;100777.78;7350260;19;20018;-58
2022/04/04 07:16:22;;;;;;;0.00;0.00;;;;;;;12.95;71.36;100774.25;7362280;19;20116;-57
2022/04/04 07:18:48;;;;;;;0.00;0.00;;;;;;;12.97;71.56;100772.44;7359634;19;20591;-58
2022/04/04 07:21:15;;;;;;;0.00;0.00;;;;;;;13.01;71.44;100778.44;7361115;19;20051;-57
2022/04/04 07:23:40;;;;;;;0.00;0.00;;;;;;;13.04;71.00;100789.69;7352551;19;20023;-57
2022/04/04 07:26:06;;;;;;;0.00;0.00;;;;;;;13.06;71.65;100787.88;7358316;19;20014;-58
2022/04/04 07:28:31;;;;;;;0.00;0.00;;;;;;;13.06;71.76;100780.00;7360970;19;20033;-57
2022/04/04 07:30:57;;;;;;;0.00;0.00;;;;;;;13.09;71.37;100779.06;7361703;19;20890;-58
2022/04/04 07:33:22;;;;;;;0.00;0.00;;;;;;;13.14;71.41;100779.78;7357995;19;20042;-57
2022/04/04 07:35:49;;;;;;;0.00;0.00;;;;;;;13.15;71.81;100786.72;7355657;19;20021;-57
2022/04/04 07:38:14;;;;;;;0.00;0.00;;;;;;;13.18;71.22;100787.50;7349164;19;20025;-57
2022/04/04 07:40:40;;;;;;;0.00;0.00;;;;;;;13.22;71.46;100775.16;7357369;19;20016;-57
2022/04/04 07:43:06;;;;;;;0.00;0.00;;;;;;;13.23;71.12;100785.63;7351299;19;20369;-57
2022/04/04 07:45:32;;;;;;;0.00;0.00;;;;;;;13.31;71.00;100792.38;7357852;19;20014;-57
2022/04/04 07:47:58;;;;;;;0.00;0.00;;;;;;;13.33;70.95;100780.06;7359894;19;20047;-57
2022/04/04 07:50:24;;;;;;;0.00;0.00;;;;;;;13.36;70.67;100777.34;7362084;19;20485;-58
2022/04/04 07:52:50;;;;;;;0.00;0.00;;;;;;;13.31;70.68;100769.63;7362055;19;20078;-57
2022/04/04 07:55:16;;;;;;;0.00;0.00;;;;;;;13.35;70.85;100767.75;7360360;19;20007;-58
2022/04/04 07:57:42;;;;;;;0.00;0.00;;;;;;;13.38;70.62;100770.25;7351555;19;20021;-58
2022/04/04 08:00:11;;;;;;;0.00;0.00;;;;;;;13.43;70.87;100770.97;7349398;19;20002;-57
2022/04/04 08:02:37;;;;;;;0.00;0.00;;;;;;;13.54;70.79;100789.84;7355528;19;20026;-57
2022/04/04 08:05:04;;;;;;;0.00;0.00;;;;;;;13.48;70.99;100763.81;7360041;19;20465;-57
2022/04/04 08:07:30;;;;;;;0.00;0.00;;;;;;;13.58;70.98;100786.19;7355181;19;20027;-57
2022/04/04 08:09:55;;;;;;;0.00;0.00;;;;;;;13.66;70.72;100789.44;7362775;19;20019;-56
2022/04/04 08:12:25;;;;;;;0.00;0.00;;;;;;;13.71;70.29;100789.28;7359122;19;20014;-57
2022/04/04 08:14:50;;;;;;;0.00;0.00;;;;;;;13.72;70.39;100778.72;7363379;19;20012;-57
2022/04/04 08:17:15;;;;;;;0.00;0.00;;;;;;;13.70;70.79;100775.31;7360524;19;20008;-56
2022/04/04 08:19:41;;;;;;;0.00;0.00;;;;;;;13.83;70.44;100790.63;7364872;19;20006;-57
2022/04/04 08:22:06;;;;;;;0.00;0.00;;;;;;;13.84;70.23;100797.56;7351302;19;20082;-57
2022/04/04 08:24:31;;;;;;;0.00;0.00;;;;;;;13.60;69.98;100737.16;7353829;19;20022;-57
2022/04/04 08:26:57;;;;;;;0.00;0.00;;;;;;;13.95;70.22;100785.81;7359016;19;20011;-57
2022/04/04 08:29:23;;;;;;;0.00;0.00;;;;;;;13.97;69.82;100793.63;7358440;19;20018;-57
2022/04/04 08:31:49;;;;;;;0.00;0.00;;;;;;;14.03;69.86;100791.63;7358078;19;20086;-57
2022/04/04 08:34:15;;;;;;;0.00;0.00;;;;;;;14.04;69.68;100784.63;7354235;19;20012;-57
2022/04/04 08:36:41;;;;;;;0.00;0.00;;;;;;;14.10;70.02;100789.66;7359705;19;20010;-57
2022/04/04 08:39:07;;;;;;;0.00;0.00;;;;;;;14.00;69.70;100759.41;7360776;19;20470;-58
2022/04/04 08:41:33;;;;;;;0.00;0.00;;;;;;;13.99;70.03;100750.66;7359804;19;20003;-57
2022/04/04 08:44:01;;;;;;;0.00;0.00;;;;;;;13.99;70.14;100744.56;7358394;19;20014;-57
2022/04/04 08:46:27;;;;;;;0.00;0.00;;;;;;;14.08;70.57;100754.69;7361784;19;20093;-57
2022/04/04 08:48:57;;;;;;;0.00;0.00;;;;;;;14.26;70.26;100775.06;7363010;19;20023;-56
2022/04/04 08:51:23;;;;;;;0.00;0.00;;;;;;;14.36;69.86;100775.56;7360653;19;20374;-57
2022/04/04 08:53:49;;;;;;;0.00;0.00;;;;;;;14.44;70.01;100763.00;7358028;19;20006;-57
2022/04/04 08:56:15;;;;;;;0.00;0.00;;;;;;;14.52;69.57;100765.38;7361682;19;20015;-57
2022/04/04 08:58:40;;;;;;;0.00;0.00;;;;;;;14.59;69.70;100756.31;7348652;19;20025;-57
2022/04/04 09:01:06;;;;;;;0.00;0.00;;;;;;;14.66;69.07;100756.97;7357957;19;20347;-57
2022/04/04 09:03:31;;;;;;;0.00;0.00;;;;;;;14.73;68.84;100771.56;7361468;19;20022;-57
2022/04/04 09:06:03;;;;;;;0.00;0.00;;;;;;;14.83;68.98;100764.19;7358655;19;20013;-56
2022/04/04 09:08:30;;;;;;;0.00;0.00;;;;;;;14.88;68.91;100756.97;7357245;19;20025;-57
2022/04/04 09:11:00;;;;;;;0.00;0.00;;;;;;;14.95;68.70;100747.91;7361954;19;20676;-57
2022/04/04 09:13:27;;;;;;;0.00;0.00;;;;;;;15.03;68.45;100753.75;7361992;19;20023;-57
2022/04/04 09:15:52;;;;;;;0.00;0.00;;;;;;;15.11;68.67;100751.66;7360569;19;20462;-57
2022/04/04 09:18:19;;;;;;;0.00;0.00;;;;;;;15.21;68.12;100762.66;7361052;19;20536;-57
2022/04/04 09:20:52;;;;;;;0.00;0.00;;;;;;;15.34;67.98;100757.75;7358697;19;20010;-57
2022/04/04 09:23:18;;;;;;;0.00;0.00;;;;;;;15.39;67.89;100747.88;7360400;19;20010;-57
2022/04/04 09:25:44;;;;;;;0.00;0.00;;;;;;;15.42;67.59;100745.13;7359718;19;20539;-57
2022/04/04 09:28:17;;;;;;;0.00;0.00;;;;;;;15.59;67.22;100755.78;7359778;19;20085;-57
2022/04/04 09:30:44;;;;;;;0.00;0.00;;;;;;;15.58;67.20;100751.44;7362056;19;20010;-57
2022/04/04 09:33:39;;;;;;;0.00;0.00;;;;;;;15.69;66.53;100756.28;7361070;19;20022;-56
2022/04/04 09:36:05;;;;;;;0.00;0.00;;;;;;;15.66;66.54;100741.50;7260270;19;2004344;-57
2022/04/04 09:38:33;;;;;;;0.00;0.00;;;;;;;15.71;66.86;100752.69;7360234;19;21197;-57
2022/04/04 09:41:24;;;;;;;0.00;0.00;;;;;;;15.85;66.65;100738.03;7356202;19;20535;-57
2022/04/04 09:43:50;;;;;;;0.00;0.00;;;;;;;15.89;66.83;100758.06;7255812;19;2004411;-57
2022/04/04 09:46:15;;;;;;;0.00;0.00;;;;;;;15.97;66.22;100755.97;7360911;19;21310;-57
2022/04/04 09:49:09;;;;;;;0.00;0.00;;;;;;;16.10;65.68;100754.47;7362732;19;20022;-57
2022/04/04 09:51:38;;;;;;;0.00;0.00;;;;;;;16.09;65.71;100744.88;7258330;19;2004515;-57
2022/04/04 09:54:06;;;;;;;0.00;0.00;;;;;;;16.17;65.75;100749.78;7355297;19;20010;-57
2022/04/04 09:56:32;;;;;;;0.00;0.00;;;;;;;16.26;65.74;100752.00;7359714;19;20022;-56
2022/04/04 09:58:59;;;;;;;0.00;0.00;;;;;;;16.35;65.58;100752.44;7361276;19;20979;-57
2022/04/04 10:01:25;;;;;;;0.05;0.05;;;;;;;16.45;65.15;100768.69;7352027;19;20520;-55
2022/04/04 10:03:52;;;;;;;0.00;0.00;;;;;;;16.53;65.20;100761.28;7357204;19;20386;-56
2022/04/04 10:06:19;;;;;;;0.00;0.00;;;;;;;16.51;64.49;100749.09;7359665;19;20015;-57
2022/04/04 10:08:51;;;;;;;0.00;0.00;;;;;;;16.70;64.50;100767.56;7359423;19;20466;-57
2022/04/04 10:11:17;;;;;;;0.00;0.00;;;;;;;16.71;63.93;100767.50;7356750;19;20704;-56
2022/04/04 10:13:44;;;;;;;0.00;0.00;;;;;;;16.74;63.50;100769.16;7358672;19;20014;-57
2022/04/04 10:16:11;;;;;;;0.10;0.10;;;;;;;16.73;63.82;100770.94;7359962;19;20808;-57
2022/04/04 10:18:37;;;;;;;0.00;0.00;;;;;;;16.73;63.89;100773.56;7357994;19;20114;-56
2022/04/04 10:21:03;;;;;;;0.00;0.00;;;;;;;16.62;63.39;100752.06;7354991;19;20926;-57
2022/04/04 10:23:30;;;;;;;0.00;0.00;;;;;;;16.74;63.79;100796.38;7360046;19;20081;-56
2022/04/04 10:26:00;;;;;;;0.00;0.00;;;;;;;16.73;63.25;100747.22;7358325;19;20686;-57
2022/04/04 10:28:30;;;;;;;0.00;0.00;;;;;;;16.78;63.24;100761.03;7360819;19;20042;-57
2022/04/04 10:31:09;;;;;;;0.00;0.00;;;;;;;16.79;63.17;100749.53;7359444;19;20020;-57
2022/04/04 10:33:35;;;;;;;0.00;0.00;;;;;;;16.69;63.80;100729.78;7360697;19;20019;-57
2022/04/04 10:36:06;;;;;;;0.00;0.00;;;;;;;16.96;63.40;100753.16;7357704;19;20002;-57
2022/04/04 10:38:32;;;;;;;0.10;0.10;;;;;;;17.04;62.95;100748.38;7359346;19;20003;-58
2022/04/04 10:41:01;;;;;;;0.00;0.00;;;;;;;17.01;62.76;100735.31;7358363;19;20478;-56
2022/04/04 10:43:32;;;;;;;0.00;0.00;;;;;;;17.26;62.96;100749.00;7356206;19;21275;-57
2022/04/04 10:46:00;;;;;;;0.00;0.00;;;;;;;17.30;62.04;100755.84;7358935;19;20019;-57
2022/04/04 10:48:30;;;;;;;0.00;0.00;;;;;;;17.40;62.32;100748.34;7355896;19;20054;-57
2022/04/04 10:51:12;;;;;;;0.00;0.00;;;;;;;17.44;62.19;100734.06;7357629;19;20022;-57
2022/04/04 10:53:43;;;;;;;0.10;0.10;;;;;;;17.50;61.57;100743.44;7360330;19;20359;-57
2022/04/04 10:56:11;;;;;;;0.00;0.00;;;;;;;17.56;61.81;100743.13;7356431;19;20016;-56
2022/04/04 10:58:37;;;;;;;;;;;;;;;17.72;62.35;100745.84;7357875;19;20020;-55
2022/04/04 11:01:15;;;;;;;0.00;0.00;;;;;;;17.76;61.48;100735.06;7356622;19;19915;-57
2022/04/04 11:03:42;;;;;;;0.00;0.00;;;;;;;17.98;60.72;100747.13;7358001;19;20878;-57
2022/04/04 11:09:15;;;;;;;0.00;0.00;;;;;;;18.41;60.38;100751.00;7359926;19;20525;-57
2022/04/04 11:11:43;;;;;;;0.00;0.00;;;;;;;18.51;59.64;100738.13;7364892;19;20030;-57
2022/04/04 11:14:09;;;;;;;0.00;0.00;;;;;;;18.60;58.26;100742.88;7363174;19;20474;-57
2022/04/04 11:17:05;;;;;;;0.00;0.00;;;;;;;18.79;59.34;100748.03;7364747;19;20039;-57
2022/04/04 11:20:00;;;;;;;0.00;0.00;;;;;;;18.80;58.37;100737.38;7261597;19;2004167;-56
2022/04/04 11:22:27;;;;;;;0.00;0.00;;;;;;;18.75;58.15;100735.91;7263232;19;2004467;-57
2022/04/04 11:24:55;;;;;;;0.00;0.00;;;;;;;18.75;57.77;100725.34;7358596;19;20006;-55
2022/04/04 11:27:23;;;;;;;0.00;0.00;;;;;;;18.80;58.05;100737.38;7363891;19;20701;-55
2022/04/04 11:29:49;;;;;;;0.00;0.00;;;;;;;18.79;57.26;100738.31;7359757;19;19998;-57